createdAt,value
2018-09-14T00:00:37.404Z,0.00
2018-09-14T00:01:37.328Z,0.00
2018-09-14T00:02:37.219Z,0.00
2018-09-14T00:03:37.128Z,0.00
2018-09-14T00:04:37.035Z,0.00
2018-09-14T00:05:36.941Z,0.00
2018-09-14T00:06:36.970Z,0.00
2018-09-14T00:07:36.760Z,0.00
2018-09-14T00:08:36.665Z,0.00
2018-09-14T00:09:36.576Z,0.00
2018-09-14T00:10:36.481Z,0.00
2018-09-14T00:11:36.404Z,0.00
2018-09-14T00:12:36.302Z,0.00
2018-09-14T00:13:36.307Z,0.00
2018-09-14T00:14:36.112Z,0.00
2018-09-14T00:15:36.020Z,0.00
2018-09-14T00:16:35.946Z,0.00
2018-09-14T00:17:35.836Z,0.00
2018-09-14T00:18:35.746Z,0.00
2018-09-14T00:19:35.668Z,0.00
2018-09-14T00:20:35.655Z,0.00
2018-09-14T00:21:35.467Z,0.00
2018-09-14T00:22:35.402Z,0.00
2018-09-14T00:23:35.283Z,0.00
2018-09-14T00:24:35.191Z,0.00
2018-09-14T00:25:35.100Z,0.00
2018-09-14T00:26:35.023Z,0.00
2018-09-14T00:27:35.016Z,0.00
2018-09-14T00:28:34.822Z,0.00
2018-09-14T00:29:34.728Z,0.00
2018-09-14T00:30:34.639Z,0.00
2018-09-14T00:31:34.548Z,0.00
2018-09-14T00:32:34.467Z,0.00
2018-09-14T00:33:34.362Z,0.00
2018-09-14T00:34:34.387Z,0.00
2018-09-14T00:35:34.173Z,0.00
2018-09-14T00:36:34.087Z,0.00
2018-09-14T00:37:34.013Z,0.00
2018-09-14T00:38:33.899Z,0.00
2018-09-14T00:39:33.804Z,0.00
2018-09-14T00:40:33.713Z,0.00
2018-09-14T00:41:33.725Z,0.00
2018-09-14T00:42:33.548Z,0.00
2018-09-14T00:43:33.437Z,0.00
2018-09-14T00:44:33.346Z,0.00
2018-09-14T00:45:33.253Z,0.00
2018-09-14T00:46:33.165Z,0.00
2018-09-14T00:47:33.086Z,0.00
2018-09-14T00:48:33.076Z,0.00
2018-09-14T00:49:32.883Z,0.00
2018-09-14T00:50:32.790Z,0.00
2018-09-14T00:51:32.701Z,0.00
2018-09-14T00:52:32.623Z,0.00
2018-09-14T00:53:32.518Z,0.00
2018-09-14T00:54:32.423Z,0.00
2018-09-14T00:55:32.332Z,0.00
2018-09-14T00:56:32.240Z,0.00
2018-09-14T00:57:32.162Z,0.00
2018-09-14T00:58:32.055Z,0.00
2018-09-14T00:59:31.961Z,0.00
2018-09-14T01:00:31.868Z,0.00
2018-09-14T01:01:31.776Z,0.00
2018-09-14T01:02:31.830Z,0.00
2018-09-14T01:03:31.595Z,0.00
2018-09-14T01:04:31.501Z,0.00
2018-09-14T01:05:31.413Z,0.00
2018-09-14T01:06:31.318Z,0.00
2018-09-14T01:07:31.241Z,0.00
2018-09-14T01:08:31.255Z,0.00
2018-09-14T01:09:31.042Z,0.00
2018-09-14T01:10:30.953Z,0.00
2018-09-14T01:11:30.855Z,0.00
2018-09-14T01:12:30.782Z,0.00
2018-09-14T01:13:30.673Z,0.00
2018-09-14T01:14:30.577Z,0.00
2018-09-14T01:15:30.488Z,0.00
2018-09-14T01:16:30.395Z,0.00
2018-09-14T01:17:30.325Z,0.00
2018-09-14T01:18:30.209Z,0.00
2018-09-14T01:19:30.118Z,0.00
2018-09-14T01:20:30.043Z,0.00
2018-09-14T01:21:29.936Z,0.00
2018-09-14T01:22:29.858Z,0.00
2018-09-14T01:23:29.748Z,0.00
2018-09-14T01:24:29.657Z,0.00
2018-09-14T01:25:29.565Z,0.00
2018-09-14T01:26:29.472Z,0.00
2018-09-14T01:27:29.400Z,0.00
2018-09-14T01:28:29.291Z,0.00
2018-09-14T01:29:29.195Z,0.00
2018-09-14T01:30:29.104Z,0.00
2018-09-14T01:31:29.012Z,0.00
2018-09-14T01:32:28.932Z,0.00
2018-09-14T01:33:28.828Z,0.00
2018-09-14T01:34:28.735Z,0.00
2018-09-14T01:35:28.644Z,0.00
2018-09-14T01:36:28.548Z,0.00
2018-09-14T01:37:28.476Z,0.00
2018-09-14T01:38:28.361Z,0.00
2018-09-14T01:39:28.272Z,0.00
2018-09-14T01:40:28.178Z,0.00
2018-09-14T01:41:28.088Z,0.00
2018-09-14T01:42:28.014Z,0.00
2018-09-14T01:43:27.903Z,0.00
2018-09-14T01:44:27.809Z,0.00
2018-09-14T01:45:27.717Z,0.00
2018-09-14T01:46:27.627Z,0.00
2018-09-14T01:47:27.549Z,0.00
2018-09-14T01:48:27.441Z,0.00
2018-09-14T01:49:27.346Z,0.00
2018-09-14T01:50:27.254Z,0.00
2018-09-14T01:51:27.456Z,0.00
2018-09-14T01:52:27.085Z,0.00
2018-09-14T01:53:26.978Z,0.00
2018-09-14T01:54:26.887Z,0.00
2018-09-14T01:55:26.794Z,0.00
2018-09-14T01:56:26.703Z,0.00
2018-09-14T01:57:26.630Z,0.00
2018-09-14T01:58:26.616Z,0.00
2018-09-14T01:59:26.424Z,0.00
2018-09-14T02:00:26.335Z,0.00
2018-09-14T02:01:26.240Z,0.00
2018-09-14T02:02:26.164Z,0.00
2018-09-14T02:03:26.084Z,0.00
2018-09-14T02:04:25.962Z,0.00
2018-09-14T02:05:25.868Z,0.00
2018-09-14T02:06:25.780Z,0.00
2018-09-14T02:07:25.704Z,0.00
2018-09-14T02:08:25.597Z,0.00
2018-09-14T02:09:25.499Z,0.00
2018-09-14T02:10:25.406Z,0.00
2018-09-14T02:11:25.313Z,0.00
2018-09-14T02:12:25.227Z,0.00
2018-09-14T02:13:25.147Z,0.00
2018-09-14T02:14:25.044Z,0.00
2018-09-14T02:15:24.946Z,0.00
2018-09-14T02:16:24.853Z,0.00
2018-09-14T02:17:24.778Z,0.00
2018-09-14T02:18:24.669Z,0.00
2018-09-14T02:19:24.581Z,0.00
2018-09-14T02:20:24.483Z,0.00
2018-09-14T02:21:24.394Z,0.00
2018-09-14T02:22:24.305Z,0.00
2018-09-14T02:23:24.225Z,0.00
2018-09-14T02:24:24.115Z,0.00
2018-09-14T02:25:24.076Z,0.00
2018-09-14T02:26:23.931Z,0.00
2018-09-14T02:27:23.845Z,0.00
2018-09-14T02:28:23.760Z,0.00
2018-09-14T02:29:23.652Z,0.00
2018-09-14T02:30:23.561Z,0.00
2018-09-14T02:31:23.468Z,0.00
2018-09-14T02:32:23.376Z,0.00
2018-09-14T02:33:23.406Z,0.00
2018-09-14T02:34:23.195Z,0.00
2018-09-14T02:35:23.099Z,0.00
2018-09-14T02:36:23.008Z,0.00
2018-09-14T02:37:22.913Z,0.00
2018-09-14T02:38:22.843Z,0.00
2018-09-14T02:39:22.730Z,0.00
2018-09-14T02:40:22.637Z,0.00
2018-09-14T02:41:22.541Z,0.00
2018-09-14T02:42:22.453Z,0.00
2018-09-14T02:43:22.375Z,0.00
2018-09-14T02:44:22.296Z,0.00
2018-09-14T02:45:22.173Z,0.00
2018-09-14T02:46:22.082Z,0.00
2018-09-14T02:47:22.088Z,0.00
2018-09-14T02:48:21.914Z,0.00
2018-09-14T02:49:21.808Z,0.00
2018-09-14T02:50:21.717Z,0.00
2018-09-14T02:51:21.620Z,0.00
2018-09-14T02:52:21.527Z,0.00
2018-09-14T02:53:21.451Z,0.00
2018-09-14T02:54:21.450Z,0.00
2018-09-14T02:55:21.251Z,0.00
2018-09-14T02:56:21.165Z,0.00
2018-09-14T02:57:21.094Z,0.00
2018-09-14T02:58:20.990Z,0.00
2018-09-14T02:59:20.883Z,0.00
2018-09-14T03:00:20.790Z,0.00
2018-09-14T03:01:20.792Z,0.00
2018-09-14T03:02:20.605Z,0.00
2018-09-14T03:03:20.530Z,0.00
2018-09-14T03:04:20.422Z,0.00
2018-09-14T03:05:20.327Z,0.00
2018-09-14T03:06:20.235Z,0.00
2018-09-14T03:07:20.145Z,0.00
2018-09-14T03:08:20.167Z,0.00
2018-09-14T03:09:19.960Z,0.00
2018-09-14T03:10:19.918Z,0.00
2018-09-14T03:11:19.780Z,0.00
2018-09-14T03:12:19.689Z,0.00
2018-09-14T03:13:19.604Z,0.00
2018-09-14T03:14:19.496Z,0.00
2018-09-14T03:15:19.505Z,0.00
2018-09-14T03:16:19.314Z,0.00
2018-09-14T03:17:19.219Z,0.00
2018-09-14T03:18:19.143Z,0.00
2018-09-14T03:19:19.033Z,0.00
2018-09-14T03:20:18.947Z,0.00
2018-09-14T03:21:18.848Z,0.00
2018-09-14T03:22:18.858Z,0.00
2018-09-14T03:23:18.682Z,0.00
2018-09-14T03:24:18.573Z,0.00
2018-09-14T03:25:18.483Z,0.00
2018-09-14T03:26:18.388Z,0.00
2018-09-14T03:27:18.297Z,0.00
2018-09-14T03:28:18.217Z,0.00
2018-09-14T03:29:18.210Z,0.00
2018-09-14T03:30:18.021Z,0.00
2018-09-14T03:31:17.924Z,0.00
2018-09-14T03:32:17.881Z,0.00
2018-09-14T03:33:17.758Z,0.00
2018-09-14T03:34:17.647Z,0.00
2018-09-14T03:35:17.558Z,0.00
2018-09-14T03:36:17.571Z,0.00
2018-09-14T03:37:17.372Z,0.00
2018-09-14T03:38:17.298Z,0.00
2018-09-14T03:39:17.249Z,0.00
2018-09-14T03:40:17.098Z,0.00
2018-09-14T03:41:17.001Z,0.00
2018-09-14T03:42:16.910Z,0.00
2018-09-14T03:43:16.930Z,0.00
2018-09-14T03:44:16.730Z,0.00
2018-09-14T03:45:16.631Z,0.00
2018-09-14T03:46:16.540Z,0.00
2018-09-14T03:47:16.445Z,0.00
2018-09-14T03:48:16.367Z,0.00
2018-09-14T03:49:16.258Z,0.00
2018-09-14T03:50:16.268Z,0.00
2018-09-14T03:51:16.077Z,0.00
2018-09-14T03:52:15.984Z,0.00
2018-09-14T03:53:15.907Z,0.00
2018-09-14T03:54:15.804Z,0.00
2018-09-14T03:55:15.706Z,0.00
2018-09-14T03:56:15.616Z,0.00
2018-09-14T03:57:15.562Z,0.00
2018-09-14T03:58:15.445Z,0.00
2018-09-14T03:59:15.336Z,0.00
2018-09-14T04:00:15.242Z,0.00
2018-09-14T04:01:15.152Z,0.00
2018-09-14T04:02:15.060Z,0.00
2018-09-14T04:03:14.969Z,0.00
2018-09-14T04:04:14.991Z,0.00
2018-09-14T04:05:14.781Z,0.00
2018-09-14T04:06:14.688Z,0.00
2018-09-14T04:07:14.595Z,0.00
2018-09-14T04:08:14.521Z,0.00
2018-09-14T04:09:14.426Z,0.00
2018-09-14T04:10:14.442Z,0.00
2018-09-14T04:11:14.222Z,0.00
2018-09-14T04:12:14.132Z,0.00
2018-09-14T04:13:14.046Z,0.00
2018-09-14T04:14:13.966Z,0.00
2018-09-14T04:15:13.850Z,0.00
2018-09-14T04:16:13.767Z,0.00
2018-09-14T04:17:13.671Z,0.00
2018-09-14T04:18:13.579Z,0.00
2018-09-14T04:19:13.499Z,0.00
2018-09-14T04:20:13.390Z,0.00
2018-09-14T04:21:13.303Z,4.00
2018-09-14T04:22:13.207Z,4.00
2018-09-14T04:23:13.117Z,4.00
2018-09-14T04:24:13.035Z,8.00
2018-09-14T04:25:12.927Z,4.00
2018-09-14T04:26:12.837Z,8.00
2018-09-14T04:27:12.747Z,8.00
2018-09-14T04:28:12.648Z,12.00
2018-09-14T04:29:12.578Z,16.00
2018-09-14T04:30:12.468Z,16.00
2018-09-14T04:31:12.375Z,16.00
2018-09-14T04:32:12.281Z,16.00
2018-09-14T04:33:12.188Z,16.00
2018-09-14T04:34:12.111Z,16.00
2018-09-14T04:35:11.999Z,24.00
2018-09-14T04:36:11.913Z,24.00
2018-09-14T04:37:11.816Z,24.00
2018-09-14T04:38:11.851Z,32.00
2018-09-14T04:39:11.653Z,36.00
2018-09-14T04:40:11.538Z,36.00
2018-09-14T04:41:11.447Z,40.00
2018-09-14T04:42:11.353Z,48.00
2018-09-14T04:43:11.263Z,60.00
2018-09-14T04:44:11.184Z,68.00
2018-09-14T04:45:11.078Z,72.00
2018-09-14T04:46:10.987Z,88.00
2018-09-14T04:47:10.889Z,96.00
2018-09-14T04:48:10.800Z,100.00
2018-09-14T04:49:10.723Z,108.00
2018-09-14T04:50:10.613Z,132.00
2018-09-14T04:51:10.522Z,136.00
2018-09-14T04:52:10.427Z,136.00
2018-09-14T04:53:10.382Z,140.00
2018-09-14T04:54:10.301Z,160.00
2018-09-14T04:55:10.151Z,168.00
2018-09-14T04:56:10.057Z,164.00
2018-09-14T04:57:09.969Z,156.00
2018-09-14T04:58:09.872Z,164.00
2018-09-14T04:59:09.818Z,176.00
2018-09-14T05:00:09.690Z,188.00
2018-09-14T05:01:09.594Z,180.00
2018-09-14T05:02:09.502Z,172.00
2018-09-14T05:03:09.410Z,184.00
2018-09-14T05:04:09.332Z,216.00
2018-09-14T05:05:09.231Z,216.00
2018-09-14T05:06:09.135Z,260.00
2018-09-14T05:07:09.041Z,300.00
2018-09-14T05:08:08.949Z,304.00
2018-09-14T05:09:08.877Z,300.00
2018-09-14T05:10:08.764Z,288.00
2018-09-14T05:11:08.672Z,296.00
2018-09-14T05:12:08.577Z,288.00
2018-09-14T05:13:08.580Z,308.00
2018-09-14T05:14:08.429Z,388.00
2018-09-14T05:15:08.300Z,420.00
2018-09-14T05:16:08.208Z,404.00
2018-09-14T05:17:08.114Z,432.00
2018-09-14T05:18:08.022Z,460.00
2018-09-14T05:19:07.965Z,436.00
2018-09-14T05:20:07.944Z,408.00
2018-09-14T05:21:07.743Z,392.00
2018-09-14T05:22:07.654Z,448.00
2018-09-14T05:23:07.557Z,540.00
2018-09-14T05:24:07.538Z,556.00
2018-09-14T05:25:07.393Z,620.00
2018-09-14T05:26:07.283Z,652.00
2018-09-14T05:27:07.292Z,640.00
2018-09-14T05:28:07.093Z,628.00
2018-09-14T05:29:07.020Z,604.00
2018-09-14T05:30:06.913Z,564.00
2018-09-14T05:31:06.817Z,500.00
2018-09-14T05:32:06.725Z,520.00
2018-09-14T05:33:06.638Z,608.00
2018-09-14T05:34:06.660Z,688.00
2018-09-14T05:35:06.448Z,692.00
2018-09-14T05:36:06.360Z,664.00
2018-09-14T05:37:06.264Z,644.00
2018-09-14T05:38:06.175Z,612.00
2018-09-14T05:39:06.096Z,608.00
2018-09-14T05:40:05.985Z,760.00
2018-09-14T05:41:05.999Z,752.00
2018-09-14T05:42:05.804Z,684.00
2018-09-14T05:43:05.707Z,636.00
2018-09-14T05:44:05.634Z,592.00
2018-09-14T05:45:05.526Z,664.00
2018-09-14T05:46:05.433Z,744.00
2018-09-14T05:47:05.339Z,724.00
2018-09-14T05:48:05.352Z,668.00
2018-09-14T05:49:05.159Z,612.00
2018-09-14T05:50:05.083Z,608.00
2018-09-14T05:51:04.970Z,684.00
2018-09-14T05:52:04.878Z,744.00
2018-09-14T05:53:04.782Z,724.00
2018-09-14T05:54:04.694Z,728.00
2018-09-14T05:55:04.712Z,764.00
2018-09-14T05:56:04.511Z,832.00
2018-09-14T05:57:04.416Z,820.00
2018-09-14T05:58:04.322Z,856.00
2018-09-14T05:59:04.233Z,968.00
2018-09-14T06:00:04.796Z,1016.00
2018-09-14T06:01:04.048Z,1040.00
2018-09-14T06:02:04.055Z,1072.00
2018-09-14T06:03:03.862Z,1176.00
2018-09-14T06:04:03.775Z,1204.00
2018-09-14T06:05:03.691Z,1140.00
2018-09-14T06:06:03.585Z,1100.00
2018-09-14T06:07:03.490Z,1184.00
2018-09-14T06:08:03.398Z,1480.00
2018-09-14T06:09:03.415Z,1660.00
2018-09-14T06:10:03.252Z,1548.00
2018-09-14T06:11:03.121Z,1392.00
2018-09-14T06:12:03.030Z,1448.00
2018-09-14T06:13:02.941Z,1496.00
2018-09-14T06:14:02.849Z,1552.00
2018-09-14T06:15:02.771Z,1532.00
2018-09-14T06:16:02.758Z,1580.00
2018-09-14T06:17:02.644Z,1796.00
2018-09-14T06:18:02.483Z,2020.00
2018-09-14T06:19:02.390Z,2132.00
2018-09-14T06:20:02.309Z,2712.00
2018-09-14T06:21:02.198Z,3496.00
2018-09-14T06:22:02.110Z,3920.00
2018-09-14T06:23:02.023Z,4036.00
2018-09-14T06:24:01.922Z,3664.00
2018-09-14T06:25:01.852Z,3660.00
2018-09-14T06:26:01.755Z,3900.00
2018-09-14T06:27:01.645Z,3964.00
2018-09-14T06:28:01.553Z,3504.00
2018-09-14T06:29:01.460Z,3084.00
2018-09-14T06:30:01.369Z,3076.00
2018-09-14T06:31:01.295Z,3032.00
2018-09-14T06:32:01.188Z,3048.00
2018-09-14T06:33:01.111Z,3168.00
2018-09-14T06:34:01.002Z,3016.00
2018-09-14T06:35:00.912Z,3204.00
2018-09-14T06:36:00.817Z,3428.00
2018-09-14T06:37:00.722Z,4116.00
2018-09-14T06:38:00.637Z,4696.00
2018-09-14T06:39:00.557Z,5268.00
2018-09-14T06:40:00.454Z,5620.00
2018-09-14T06:41:00.369Z,6036.00
2018-09-14T06:42:00.267Z,7208.00
2018-09-14T06:43:00.171Z,8048.00
2018-09-14T06:44:00.097Z,7360.00
2018-09-14T06:45:00.060Z,6260.00
2018-09-14T06:45:59.894Z,5960.00
2018-09-14T06:46:59.803Z,5684.00
2018-09-14T06:47:59.712Z,5064.00
2018-09-14T06:48:59.638Z,4316.00
2018-09-14T06:49:59.528Z,3704.00
2018-09-14T06:50:59.439Z,3320.00
2018-09-14T06:51:59.359Z,3296.00
2018-09-14T06:52:59.253Z,3360.00
2018-09-14T06:53:59.182Z,3400.00
2018-09-14T06:54:59.072Z,3768.00
2018-09-14T06:55:58.976Z,4508.00
2018-09-14T06:56:58.883Z,4992.00
2018-09-14T06:57:58.802Z,5228.00
2018-09-14T06:58:58.911Z,5260.00
2018-09-14T06:59:58.669Z,5016.00
2018-09-14T07:00:58.524Z,4884.00
2018-09-14T07:01:58.427Z,4444.00
2018-09-14T07:02:58.337Z,3896.00
2018-09-14T07:03:58.278Z,3592.00
2018-09-14T07:04:58.152Z,3500.00
2018-09-14T07:05:58.061Z,3220.00
2018-09-14T07:06:57.966Z,3252.00
2018-09-14T07:07:57.885Z,3776.00
2018-09-14T07:08:57.801Z,4400.00
2018-09-14T07:09:57.691Z,4608.00
2018-09-14T07:10:57.601Z,4180.00
2018-09-14T07:11:57.513Z,3496.00
2018-09-14T07:12:57.418Z,3312.00
2018-09-14T07:13:57.349Z,3256.00
2018-09-14T07:14:57.232Z,3192.00
2018-09-14T07:15:57.145Z,3068.00
2018-09-14T07:16:57.054Z,3316.00
2018-09-14T07:17:56.961Z,3808.00
2018-09-14T07:18:56.885Z,4308.00
2018-09-14T07:19:56.775Z,4328.00
2018-09-14T07:20:56.684Z,4072.00
2018-09-14T07:21:56.721Z,3512.00
2018-09-14T07:22:56.500Z,3072.00
2018-09-14T07:23:56.428Z,3016.00
2018-09-14T07:24:56.421Z,3600.00
2018-09-14T07:25:56.238Z,5364.00
2018-09-14T07:26:56.133Z,7272.00
2018-09-14T07:27:56.063Z,8356.00
2018-09-14T07:28:56.052Z,8460.00
2018-09-14T07:29:55.905Z,8512.00
2018-09-14T07:30:55.778Z,8624.00
2018-09-14T07:31:55.768Z,8692.00
2018-09-14T07:32:55.625Z,7768.00
2018-09-14T07:33:55.507Z,6848.00
2018-09-14T07:34:55.400Z,6752.00
2018-09-14T07:35:55.309Z,6584.00
2018-09-14T07:36:55.216Z,7144.00
2018-09-14T07:37:55.125Z,7956.00
2018-09-14T07:38:55.036Z,8892.00
2018-09-14T07:39:54.957Z,9244.00
2018-09-14T07:40:54.852Z,8832.00
2018-09-14T07:41:54.765Z,9356.00
2018-09-14T07:42:54.687Z,10764.00
2018-09-14T07:43:54.578Z,11396.00
2018-09-14T07:44:54.503Z,10236.00
2018-09-14T07:45:54.395Z,8412.00
2018-09-14T07:46:54.404Z,7972.00
2018-09-14T07:47:54.211Z,7968.00
2018-09-14T07:48:54.125Z,9080.00
2018-09-14T07:49:54.048Z,10120.00
2018-09-14T07:50:53.937Z,9608.00
2018-09-14T07:51:53.845Z,8372.00
2018-09-14T07:52:53.755Z,7688.00
2018-09-14T07:53:53.665Z,7608.00
2018-09-14T07:54:53.586Z,8164.00
2018-09-14T07:55:53.479Z,8440.00
2018-09-14T07:56:53.391Z,8256.00
2018-09-14T07:57:53.299Z,7652.00
2018-09-14T07:58:53.204Z,7572.00
2018-09-14T07:59:53.131Z,8372.00
2018-09-14T08:00:53.120Z,8436.00
2018-09-14T08:01:52.932Z,7536.00
2018-09-14T08:02:52.845Z,6932.00
2018-09-14T08:03:52.751Z,6144.00
2018-09-14T08:04:52.675Z,5880.00
2018-09-14T08:05:52.569Z,6284.00
2018-09-14T08:06:52.471Z,6892.00
2018-09-14T08:07:52.486Z,7460.00
2018-09-14T08:08:52.291Z,8312.00
2018-09-14T08:09:52.216Z,9336.00
2018-09-14T08:10:52.110Z,11096.00
2018-09-14T08:11:52.041Z,12660.00
2018-09-14T08:12:51.929Z,13876.00
2018-09-14T08:13:51.851Z,15424.00
2018-09-14T08:14:51.874Z,16140.00
2018-09-14T08:15:51.655Z,16736.00
2018-09-14T08:16:51.562Z,16688.00
2018-09-14T08:17:51.476Z,15036.00
2018-09-14T08:18:51.385Z,13344.00
2018-09-14T08:19:51.305Z,12560.00
2018-09-14T08:20:51.200Z,12208.00
2018-09-14T08:21:51.313Z,12736.00
2018-09-14T08:22:51.018Z,13884.00
2018-09-14T08:23:50.951Z,14544.00
2018-09-14T08:24:50.852Z,14196.00
2018-09-14T08:25:50.748Z,14372.00
2018-09-14T08:26:50.676Z,13664.00
2018-09-14T08:27:50.564Z,13604.00
2018-09-14T08:28:50.573Z,13848.00
2018-09-14T08:29:50.398Z,14244.00
2018-09-14T08:30:50.290Z,14968.00
2018-09-14T08:31:50.207Z,15968.00
2018-09-14T08:32:50.118Z,15292.00
2018-09-14T08:33:50.020Z,14240.00
2018-09-14T08:34:49.950Z,13324.00
2018-09-14T08:35:49.937Z,12448.00
2018-09-14T08:36:49.747Z,11536.00
2018-09-14T08:37:49.659Z,10780.00
2018-09-14T08:38:49.566Z,10200.00
2018-09-14T08:39:49.496Z,9212.00
2018-09-14T08:40:49.388Z,8908.00
2018-09-14T08:41:49.299Z,9412.00
2018-09-14T08:42:49.314Z,9472.00
2018-09-14T08:43:49.116Z,9292.00
2018-09-14T08:44:49.048Z,9132.00
2018-09-14T08:45:48.939Z,9408.00
2018-09-14T08:46:48.845Z,9836.00
2018-09-14T08:47:48.820Z,10104.00
2018-09-14T08:48:48.666Z,10240.00
2018-09-14T08:49:48.701Z,10660.00
2018-09-14T08:50:48.487Z,11312.00
2018-09-14T08:51:48.398Z,11608.00
2018-09-14T08:52:48.307Z,11760.00
2018-09-14T08:53:48.216Z,11792.00
2018-09-14T08:54:48.143Z,11408.00
2018-09-14T08:55:48.038Z,10728.00
2018-09-14T08:56:48.050Z,9980.00
2018-09-14T08:57:47.856Z,9380.00
2018-09-14T08:58:47.762Z,8952.00
2018-09-14T08:59:47.695Z,8600.00
2018-09-14T09:00:47.632Z,8460.00
2018-09-14T09:01:47.499Z,8404.00
2018-09-14T09:02:47.407Z,8316.00
2018-09-14T09:03:47.486Z,8488.00
2018-09-14T09:04:47.241Z,8952.00
2018-09-14T09:05:47.136Z,9468.00
2018-09-14T09:06:47.043Z,9760.00
2018-09-14T09:07:46.960Z,10056.00
2018-09-14T09:08:46.864Z,10388.00
2018-09-14T09:09:46.793Z,10636.00
2018-09-14T09:10:46.684Z,10904.00
2018-09-14T09:11:46.594Z,11212.00
2018-09-14T09:12:46.504Z,11660.00
2018-09-14T09:13:46.414Z,12032.00
2018-09-14T09:14:46.345Z,12080.00
2018-09-14T09:15:46.235Z,12068.00
2018-09-14T09:16:46.144Z,12004.00
2018-09-14T09:17:46.084Z,11768.00
2018-09-14T09:18:45.974Z,11292.00
2018-09-14T09:19:45.924Z,10768.00
2018-09-14T09:20:45.786Z,10688.00
2018-09-14T09:21:45.694Z,10920.00
2018-09-14T09:22:45.603Z,10828.00
2018-09-14T09:23:45.514Z,10476.00
2018-09-14T09:24:45.427Z,10148.00
2018-09-14T09:25:45.351Z,9332.00
2018-09-14T09:26:45.245Z,8872.00
2018-09-14T09:27:45.153Z,8432.00
2018-09-14T09:28:45.065Z,7936.00
2018-09-14T09:29:44.975Z,7764.00
2018-09-14T09:30:44.900Z,7772.00
2018-09-14T09:31:44.796Z,7704.00
2018-09-14T09:32:44.704Z,7504.00
2018-09-14T09:33:44.616Z,7192.00
2018-09-14T09:34:44.538Z,6852.00
2018-09-14T09:35:44.452Z,6716.00
2018-09-14T09:36:44.345Z,6752.00
2018-09-14T09:37:44.256Z,6780.00
2018-09-14T09:38:44.162Z,6752.00
2018-09-14T09:39:44.075Z,6732.00
2018-09-14T09:40:44.000Z,6748.00
2018-09-14T09:41:43.891Z,6772.00
2018-09-14T09:42:43.802Z,6944.00
2018-09-14T09:43:43.797Z,7168.00
2018-09-14T09:44:43.625Z,7348.00
2018-09-14T09:45:43.550Z,7564.00
2018-09-14T09:46:43.445Z,7772.00
2018-09-14T09:47:43.358Z,8004.00
2018-09-14T09:48:43.271Z,8400.00
2018-09-14T09:49:43.173Z,8864.00
2018-09-14T09:50:43.104Z,9288.00
2018-09-14T09:51:42.991Z,9644.00
2018-09-14T09:52:42.902Z,9960.00
2018-09-14T09:53:42.810Z,10292.00
2018-09-14T09:54:42.717Z,10596.00
2018-09-14T09:55:42.649Z,10852.00
2018-09-14T09:56:42.543Z,11104.00
2018-09-14T09:57:42.545Z,11416.00
2018-09-14T09:58:42.357Z,11784.00
2018-09-14T09:59:42.267Z,12240.00
2018-09-14T10:00:42.193Z,12740.00
2018-09-14T10:01:42.091Z,13280.00
2018-09-14T10:02:42.013Z,13744.00
2018-09-14T10:03:41.943Z,14076.00
2018-09-14T10:04:41.913Z,14296.00
2018-09-14T10:05:41.726Z,14580.00
2018-09-14T10:06:41.637Z,14988.00
2018-09-14T10:07:41.565Z,15472.00
2018-09-14T10:08:41.460Z,15948.00
2018-09-14T10:09:41.365Z,16416.00
2018-09-14T10:10:41.274Z,16904.00
2018-09-14T10:11:41.282Z,17600.00
2018-09-14T10:12:41.116Z,18144.00
2018-09-14T10:13:41.004Z,18464.00
2018-09-14T10:14:40.913Z,18688.00
2018-09-14T10:15:40.824Z,18816.00
2018-09-14T10:16:40.735Z,18976.00
2018-09-14T10:17:40.664Z,19264.00
2018-09-14T10:18:40.559Z,19712.00
2018-09-14T10:19:40.471Z,20160.00
2018-09-14T10:20:40.383Z,20256.00
2018-09-14T10:21:40.326Z,20000.00
2018-09-14T10:22:40.212Z,19328.00
2018-09-14T10:23:40.109Z,18464.00
2018-09-14T10:24:40.023Z,17696.00
2018-09-14T10:25:39.925Z,17036.00
2018-09-14T10:26:39.845Z,16660.00
2018-09-14T10:27:39.764Z,16296.00
2018-09-14T10:28:39.662Z,15900.00
2018-09-14T10:29:39.583Z,15528.00
2018-09-14T10:30:39.481Z,15312.00
2018-09-14T10:31:39.391Z,15268.00
2018-09-14T10:32:39.304Z,15384.00
2018-09-14T10:33:39.227Z,15748.00
2018-09-14T10:34:39.121Z,16552.00
2018-09-14T10:35:39.035Z,17920.00
2018-09-14T10:36:38.945Z,19392.00
2018-09-14T10:37:38.952Z,20864.00
2018-09-14T10:38:38.779Z,21600.00
2018-09-14T10:39:38.683Z,21248.00
2018-09-14T10:40:38.592Z,20288.00
2018-09-14T10:41:38.498Z,19968.00
2018-09-14T10:42:38.435Z,20576.00
2018-09-14T10:43:38.334Z,21920.00
2018-09-14T10:44:38.231Z,23392.00
2018-09-14T10:45:38.146Z,25216.00
2018-09-14T10:46:38.056Z,27104.00
2018-09-14T10:47:37.967Z,28800.00
2018-09-14T10:48:37.892Z,30304.00
2018-09-14T10:49:37.782Z,31840.00
2018-09-14T10:50:37.704Z,33696.00
2018-09-14T10:51:37.607Z,35616.00
2018-09-14T10:52:37.520Z,37760.00
2018-09-14T10:53:37.444Z,40448.00
2018-09-14T10:54:37.381Z,38432.00
2018-09-14T10:55:37.253Z,35840.00
2018-09-14T10:56:37.162Z,33824.00
2018-09-14T10:57:37.073Z,31648.00
2018-09-14T10:58:37.111Z,29760.00
2018-09-14T10:59:36.897Z,26464.00
2018-09-14T11:00:36.852Z,23040.00
2018-09-14T11:01:36.750Z,20224.00
2018-09-14T11:02:36.633Z,18176.00
2018-09-14T11:03:36.563Z,16436.00
2018-09-14T11:04:36.520Z,15512.00
2018-09-14T11:05:36.374Z,15056.00
2018-09-14T11:06:36.291Z,14968.00
2018-09-14T11:07:36.191Z,15188.00
2018-09-14T11:08:36.120Z,15520.00
2018-09-14T11:09:36.018Z,15540.00
2018-09-14T11:10:35.928Z,15080.00
2018-09-14T11:11:35.840Z,14328.00
2018-09-14T11:12:35.891Z,13544.00
2018-09-14T11:13:35.683Z,13112.00
2018-09-14T11:14:35.582Z,12976.00
2018-09-14T11:15:35.488Z,13104.00
2018-09-14T11:16:35.399Z,13356.00
2018-09-14T11:17:35.317Z,13664.00
2018-09-14T11:18:35.266Z,13888.00
2018-09-14T11:19:35.235Z,14116.00
2018-09-14T11:20:35.079Z,14284.00
2018-09-14T11:21:34.958Z,14276.00
2018-09-14T11:22:34.875Z,13952.00
2018-09-14T11:23:34.802Z,13364.00
2018-09-14T11:24:34.743Z,12708.00
2018-09-14T11:25:34.624Z,12252.00
2018-09-14T11:26:34.612Z,12168.00
2018-09-14T11:27:34.429Z,12488.00
2018-09-14T11:28:34.356Z,13060.00
2018-09-14T11:29:34.257Z,13740.00
2018-09-14T11:30:34.161Z,14424.00
2018-09-14T11:31:34.081Z,14820.00
2018-09-14T11:32:33.988Z,14812.00
2018-09-14T11:33:34.018Z,14540.00
2018-09-14T11:34:33.850Z,14156.00
2018-09-14T11:35:33.725Z,13836.00
2018-09-14T11:36:33.635Z,13624.00
2018-09-14T11:37:33.630Z,13668.00
2018-09-14T11:38:33.593Z,13944.00
2018-09-14T11:39:33.370Z,14648.00
2018-09-14T11:40:33.383Z,15488.00
2018-09-14T11:41:33.190Z,15976.00
2018-09-14T11:42:33.099Z,15964.00
2018-09-14T11:43:33.030Z,15740.00
2018-09-14T11:44:32.923Z,15336.00
2018-09-14T11:45:32.835Z,14632.00
2018-09-14T11:46:32.771Z,13916.00
2018-09-14T11:47:32.758Z,13548.00
2018-09-14T11:48:32.573Z,13628.00
2018-09-14T11:49:32.498Z,13852.00
2018-09-14T11:50:32.391Z,13900.00
2018-09-14T11:51:32.303Z,14056.00
2018-09-14T11:52:32.216Z,14100.00
2018-09-14T11:53:32.126Z,14040.00
2018-09-14T11:54:32.153Z,13980.00
2018-09-14T11:55:31.945Z,13720.00
2018-09-14T11:56:31.857Z,13516.00
2018-09-14T11:57:31.772Z,13688.00
2018-09-14T11:58:31.686Z,13864.00
2018-09-14T11:59:31.612Z,14608.00
2018-09-14T12:00:31.506Z,15560.00
2018-09-14T12:01:31.528Z,16312.00
2018-09-14T12:02:31.326Z,17504.00
2018-09-14T12:03:31.238Z,18112.00
2018-09-14T12:04:31.166Z,18208.00
2018-09-14T12:05:31.059Z,18400.00
2018-09-14T12:06:30.970Z,18688.00
2018-09-14T12:07:30.883Z,18816.00
2018-09-14T12:08:30.794Z,18752.00
2018-09-14T12:09:30.723Z,18624.00
2018-09-14T12:10:30.616Z,18720.00
2018-09-14T12:11:30.528Z,18784.00
2018-09-14T12:12:30.442Z,18944.00
2018-09-14T12:13:30.373Z,18624.00
2018-09-14T12:14:30.281Z,17728.00
2018-09-14T12:15:30.275Z,16256.00
2018-09-14T12:16:30.089Z,15080.00
2018-09-14T12:17:29.998Z,14544.00
2018-09-14T12:18:29.909Z,14372.00
2018-09-14T12:19:29.838Z,14292.00
2018-09-14T12:20:29.735Z,13996.00
2018-09-14T12:21:29.646Z,13612.00
2018-09-14T12:22:29.559Z,13172.00
2018-09-14T12:23:29.468Z,12716.00
2018-09-14T12:24:29.396Z,12568.00
2018-09-14T12:25:29.291Z,12868.00
2018-09-14T12:26:29.206Z,13416.00